createdAt,value
2019-03-18T00:02:15.026Z,98330.75
2019-03-18T00:07:18.505Z,98345.94
2019-03-18T00:12:22.389Z,98368.11
2019-03-18T00:17:26.697Z,98382.64
2019-03-18T00:22:30.421Z,98381.52
2019-03-18T00:27:34.297Z,98401.00
2019-03-18T00:32:37.898Z,98403.55
2019-03-18T00:37:41.834Z,98413.42
2019-03-18T00:42:44.848Z,98430.25
2019-03-18T00:47:48.081Z,98447.27
2019-03-18T00:52:51.600Z,98470.64
2019-03-18T00:57:55.128Z,98490.72
2019-03-18T01:02:58.637Z,98529.22
2019-03-18T01:08:02.150Z,98557.89
2019-03-18T01:13:05.543Z,98570.70
2019-03-18T01:18:08.827Z,98556.24
2019-03-18T01:23:11.955Z,98609.22
2019-03-18T01:28:15.066Z,98605.94
2019-03-18T01:33:18.446Z,98627.44
2019-03-18T01:38:21.677Z,98641.36
2019-03-18T01:43:25.161Z,98664.66
2019-03-18T01:48:28.387Z,98682.34
2019-03-18T01:53:31.348Z,98679.81
2019-03-18T01:58:34.675Z,98684.73
2019-03-18T02:03:37.885Z,98708.08
2019-03-18T02:08:40.999Z,98723.77
2019-03-18T02:13:44.265Z,98717.42
2019-03-18T02:18:47.230Z,98727.94
2019-03-18T02:23:50.327Z,98732.97
2019-03-18T02:28:53.693Z,98750.44
2019-03-18T02:33:56.842Z,98758.75
2019-03-18T02:39:00.155Z,98762.44
2019-03-18T02:44:03.130Z,98775.62
2019-03-18T02:49:06.533Z,98791.70
2019-03-18T02:54:09.533Z,98800.00
2019-03-18T02:59:12.613Z,98803.97
2019-03-18T03:04:15.899Z,98821.53
2019-03-18T03:09:18.994Z,98831.39
2019-03-18T03:14:21.986Z,98847.67
2019-03-18T03:19:25.203Z,98841.80
2019-03-18T03:24:28.243Z,98856.61
2019-03-18T03:29:31.431Z,98867.23
2019-03-18T03:34:34.758Z,98882.48
2019-03-18T03:39:37.860Z,98886.56
2019-03-18T03:44:40.900Z,98885.48
2019-03-18T03:49:44.184Z,98895.17
2019-03-18T03:54:47.614Z,98896.78
2019-03-18T03:59:50.590Z,98896.44
2019-03-18T04:04:54.128Z,98905.19
2019-03-18T04:09:57.323Z,98913.03
2019-03-18T04:15:00.598Z,98916.80
2019-03-18T04:20:04.667Z,98920.56
2019-03-18T04:25:08.509Z,98923.80
2019-03-18T04:30:11.809Z,98927.98
2019-03-18T04:35:14.918Z,98940.39
2019-03-18T04:40:18.010Z,98936.01
2019-03-18T04:45:21.078Z,98936.19
2019-03-18T04:50:24.069Z,98937.81
2019-03-18T04:55:27.142Z,98942.22
2019-03-18T05:00:30.240Z,98940.42
2019-03-18T05:05:33.495Z,98948.95
2019-03-18T05:10:36.450Z,98954.54
2019-03-18T05:15:39.593Z,98973.28
2019-03-18T05:20:42.674Z,98985.17
2019-03-18T05:25:45.691Z,98986.03
2019-03-18T05:30:48.650Z,98987.78
2019-03-18T05:35:51.806Z,99000.61
2019-03-18T05:40:54.912Z,98993.52
2019-03-18T05:45:58.036Z,98998.48
2019-03-18T05:51:00.964Z,99008.04
2019-03-18T05:56:04.140Z,99019.13
2019-03-18T06:01:07.344Z,99031.44
2019-03-18T06:06:10.561Z,99033.16
2019-03-18T06:11:13.709Z,99040.09
2019-03-18T06:16:16.943Z,99035.86
2019-03-18T06:21:20.322Z,99042.88
2019-03-18T06:26:23.393Z,99036.91
2019-03-18T06:31:26.510Z,99046.56
2019-03-18T06:36:29.490Z,99054.48
2019-03-18T06:41:32.633Z,99068.02
2019-03-18T06:46:35.717Z,99065.44
2019-03-18T06:51:39.163Z,99058.36
2019-03-18T06:56:42.527Z,99058.49
2019-03-18T07:01:45.665Z,99061.36
2019-03-18T07:06:48.892Z,99057.62
2019-03-18T07:11:51.878Z,99064.05
2019-03-18T07:16:54.877Z,99068.53
2019-03-18T07:21:58.096Z,99065.66
2019-03-18T07:27:01.506Z,99066.33
2019-03-18T07:32:04.773Z,99072.28
2019-03-18T07:37:07.837Z,99074.53
2019-03-18T07:42:10.990Z,99064.19
2019-03-18T07:47:14.095Z,99050.23
2019-03-18T07:52:17.280Z,99027.82
2019-03-18T07:57:20.717Z,99064.39
2019-03-18T08:02:23.764Z,99081.99
2019-03-18T08:07:27.041Z,99078.07
2019-03-18T08:12:30.128Z,99088.09
2019-03-18T08:17:33.487Z,99100.13
2019-03-18T08:22:36.933Z,99122.80
2019-03-18T08:27:40.240Z,99114.86
2019-03-18T08:32:43.701Z,99108.78
2019-03-18T08:37:46.764Z,99121.16
2019-03-18T08:42:49.957Z,99137.77
2019-03-18T08:47:53.189Z,99129.52
2019-03-18T08:52:56.561Z,99138.62
2019-03-18T08:57:59.703Z,99138.38
2019-03-18T09:03:02.942Z,99137.88
2019-03-18T09:08:06.096Z,99140.29
2019-03-18T09:13:09.183Z,99126.83
2019-03-18T09:18:12.351Z,99133.98
2019-03-18T09:23:15.464Z,99141.47
2019-03-18T09:28:18.743Z,99128.12
2019-03-18T09:33:21.982Z,99130.48
2019-03-18T09:38:25.016Z,99117.42
2019-03-18T09:43:28.498Z,99141.49
2019-03-18T09:48:31.711Z,99143.59
2019-03-18T09:53:37.571Z,99152.12
2019-03-18T09:58:39.888Z,99168.80
2019-03-18T10:03:42.946Z,99173.48
2019-03-18T10:08:46.040Z,99174.96
2019-03-18T10:13:49.286Z,99174.66
2019-03-18T10:18:52.410Z,99182.27
2019-03-18T10:23:55.526Z,99192.72
2019-03-18T10:28:58.734Z,99183.73
2019-03-18T10:34:01.820Z,99171.39
2019-03-18T10:39:07.307Z,99175.09
2019-03-18T10:44:10.488Z,99173.95
2019-03-18T10:49:13.711Z,99171.88
2019-03-18T10:54:17.111Z,99172.76
2019-03-18T10:59:20.656Z,99187.97
2019-03-18T11:04:23.772Z,99168.00
2019-03-18T11:09:26.785Z,99170.03
2019-03-18T11:14:29.754Z,99165.31
2019-03-18T11:19:32.818Z,99171.34
2019-03-18T11:24:35.886Z,99186.73
2019-03-18T11:29:38.969Z,99170.25
2019-03-18T11:34:41.993Z,99163.57
2019-03-18T11:39:45.306Z,99164.80
2019-03-18T11:44:48.478Z,99179.13
2019-03-18T11:49:51.791Z,99172.89
2019-03-18T11:54:54.891Z,99182.35
2019-03-18T11:59:58.168Z,99178.67
2019-03-18T12:05:01.279Z,99187.61
2019-03-18T12:10:05.734Z,99184.89
2019-03-18T12:15:10.278Z,99190.34
2019-03-18T12:20:23.686Z,99190.98
2019-03-18T12:25:18.719Z,99181.98
2019-03-18T12:30:22.088Z,99184.23
2019-03-18T12:35:25.576Z,99165.09
2019-03-18T12:40:28.746Z,99167.25
2019-03-18T12:45:32.276Z,99167.31
2019-03-18T12:50:53.982Z,99173.88
2019-03-18T12:55:40.378Z,99172.94
2019-03-18T13:00:43.559Z,99175.71
2019-03-18T13:05:46.676Z,99173.80
2019-03-18T13:10:49.829Z,99164.16
2019-03-18T13:15:52.977Z,99174.58
2019-03-18T13:21:07.362Z,99164.27
2019-03-18T13:26:01.392Z,99164.63
2019-03-18T13:31:04.536Z,99163.71
2019-03-18T13:36:07.579Z,99160.04
2019-03-18T13:41:10.851Z,99162.63
2019-03-18T13:46:14.081Z,99163.43
2019-03-18T13:51:21.241Z,99167.63
2019-03-18T13:56:22.168Z,99171.88
2019-03-18T14:01:25.262Z,99164.40
2019-03-18T14:06:28.473Z,99161.33
2019-03-18T14:11:31.544Z,99158.30
2019-03-18T14:16:35.011Z,99157.32
2019-03-18T14:21:38.133Z,99158.81
2019-03-18T14:26:41.086Z,99158.75
2019-03-18T14:31:44.059Z,99151.17
2019-03-18T14:36:47.064Z,99150.88
2019-03-18T14:41:50.211Z,99155.66
2019-03-18T14:46:53.434Z,99152.20
2019-03-18T14:51:56.619Z,99168.78
2019-03-18T14:56:59.887Z,99161.59
2019-03-18T15:02:02.870Z,99167.85
2019-03-18T15:07:06.063Z,99164.41
2019-03-18T15:12:09.148Z,99156.24
2019-03-18T15:17:12.287Z,99163.26
2019-03-18T15:22:15.331Z,99159.81
2019-03-18T15:27:18.423Z,99174.27
2019-03-18T15:32:21.373Z,99191.77
2019-03-18T15:37:24.637Z,99187.38
2019-03-18T15:42:27.617Z,99192.66
2019-03-18T15:47:30.936Z,99203.67
2019-03-18T15:52:33.997Z,99211.08
2019-03-18T15:57:37.240Z,99220.44
2019-03-18T16:02:40.246Z,99229.31
2019-03-18T16:07:43.417Z,99237.75
2019-03-18T16:12:46.864Z,99262.80
2019-03-18T16:17:49.955Z,99256.58
2019-03-18T16:22:53.195Z,99270.39
2019-03-18T16:27:56.288Z,99277.72
2019-03-18T16:32:59.683Z,99284.97
2019-03-18T16:38:02.961Z,99297.08
2019-03-18T16:43:05.965Z,99300.67
2019-03-18T16:48:09.070Z,99303.41
2019-03-18T16:53:12.059Z,99317.34
2019-03-18T16:58:15.334Z,99322.23
2019-03-18T17:03:18.253Z,99332.14
2019-03-18T17:08:21.382Z,99347.69
2019-03-18T17:13:24.777Z,99348.28
2019-03-18T17:18:27.741Z,99362.70
2019-03-18T17:23:30.903Z,99366.02
2019-03-18T17:28:34.446Z,99367.34
2019-03-18T17:33:37.619Z,99377.91
2019-03-18T17:38:40.900Z,99387.92
2019-03-18T17:43:44.232Z,99390.65
2019-03-18T17:48:47.358Z,99405.44
2019-03-18T17:53:50.684Z,99422.47
2019-03-18T17:58:53.987Z,99426.44
2019-03-18T18:03:57.277Z,99439.80
2019-03-18T18:09:00.506Z,99448.11
2019-03-18T18:14:03.624Z,99449.94
2019-03-18T18:19:06.890Z,99450.03
2019-03-18T18:24:09.962Z,99459.86
2019-03-18T18:29:12.974Z,99467.46
2019-03-18T18:34:15.987Z,99481.00
2019-03-18T18:39:19.476Z,99484.97
2019-03-18T18:44:22.970Z,99490.69
2019-03-18T18:49:26.046Z,99495.70
2019-03-18T18:54:29.312Z,99502.67
2019-03-18T18:59:32.507Z,99505.50
2019-03-18T19:04:35.846Z,99515.50
2019-03-18T19:09:39.420Z,99520.05
2019-03-18T19:14:42.488Z,99520.38
2019-03-18T19:19:45.727Z,99519.61
2019-03-18T19:24:48.784Z,99530.66
2019-03-18T19:29:51.847Z,99543.37
2019-03-18T19:34:54.916Z,99544.88
2019-03-18T19:39:58.210Z,99543.73
2019-03-18T19:45:01.451Z,99549.02
2019-03-18T19:50:06.841Z,99550.07
2019-03-18T19:55:10.315Z,99560.05
2019-03-18T20:00:16.460Z,99558.68
2019-03-18T20:05:20.095Z,99570.69
2019-03-18T20:10:23.502Z,99573.56
2019-03-18T20:15:26.663Z,99574.66
2019-03-18T20:20:29.825Z,99577.50
2019-03-18T20:25:32.976Z,99580.31
2019-03-18T20:30:36.055Z,99592.20
2019-03-18T20:35:39.250Z,99588.05
2019-03-18T20:40:42.339Z,99592.89
2019-03-18T20:45:45.548Z,99593.30
2019-03-18T20:50:49.079Z,99603.50
2019-03-18T20:55:52.247Z,99612.16
2019-03-18T21:00:55.809Z,99612.12
2019-03-18T21:05:58.947Z,99610.98
2019-03-18T21:11:02.022Z,99616.75
2019-03-18T21:16:05.108Z,99617.03
2019-03-18T21:21:08.335Z,99625.08
2019-03-18T21:26:11.545Z,99635.97
2019-03-18T21:31:14.941Z,99639.78
2019-03-18T21:36:32.802Z,99656.58
2019-03-18T21:41:23.022Z,99660.91
2019-03-18T21:46:27.675Z,99663.93
2019-03-18T21:51:30.983Z,99658.61
2019-03-18T21:56:34.210Z,99668.75
2019-03-18T22:01:37.502Z,99669.74
2019-03-18T22:06:40.604Z,99668.34
2019-03-18T22:11:43.978Z,99669.29
2019-03-18T22:16:47.086Z,99669.52
2019-03-18T22:21:50.158Z,99673.81
2019-03-18T22:26:53.194Z,99675.55
2019-03-18T22:31:56.557Z,99673.51
2019-03-18T22:36:59.844Z,99674.00
2019-03-18T22:42:02.807Z,99679.81
2019-03-18T22:47:06.106Z,99680.95
2019-03-18T22:52:11.165Z,99673.21
2019-03-18T22:57:13.977Z,99676.34
2019-03-18T23:02:17.080Z,99681.73
2019-03-18T23:07:20.126Z,99683.39
2019-03-18T23:12:23.081Z,99682.76
2019-03-18T23:17:26.176Z,99678.66
2019-03-18T23:22:29.264Z,99698.45
2019-03-18T23:27:32.701Z,99705.81
2019-03-18T23:32:36.361Z,99709.89
2019-03-18T23:37:39.328Z,99712.50
2019-03-18T23:42:42.886Z,99718.55
2019-03-18T23:47:46.163Z,99716.10
2019-03-18T23:52:49.108Z,99714.64
2019-03-18T23:57:54.236Z,99721.03
